Time;durP1;ratioP1;P1;durP2;ratioP2;P2;SDS_P1;SDS_P2;PMS_P1;PMS_P2;Temp;Humidity;BMP_temperature;BMP_pressure;BME280_temperature;BME280_humidity;BME280_pressure;Samples;Min_cycle;Max_cycle;Signal;HPM_P1;HPM_P2
2022/03/02 00:01:48;;;;;;;34.70;22.50;;;5.80;99.90;;;;;;5117728;28;20051;-63
2022/03/02 00:04:14;;;;;;;33.08;22.38;;;6.00;99.90;;;;;;5115696;28;20122;-63
2022/03/02 00:06:40;;;;;;;36.38;22.98;;;5.90;99.90;;;;;;5116050;28;20027;-63
2022/03/02 00:09:06;;;;;;;35.15;22.60;;;;;;;;;;5116765;28;20088;-64
2022/03/02 00:11:31;;;;;;;40.08;23.20;;;5.90;99.90;;;;;;5117618;28;20412;-63
2022/03/02 00:14:00;;;;;;;33.47;23.17;;;5.80;99.90;;;;;;5117730;28;20040;-64
2022/03/02 00:16:28;;;;;;;37.53;22.65;;;5.80;99.90;;;;;;5117480;28;20075;-63
2022/03/02 00:18:57;;;;;;;37.97;23.85;;;5.70;99.90;;;;;;5117517;28;20075;-64
2022/03/02 00:21:23;;;;;;;38.45;24.67;;;5.80;99.90;;;;;;5116802;28;20040;-64
2022/03/02 00:23:49;;;;;;;39.17;22.58;;;5.70;99.90;;;;;;5115324;28;20413;-64
2022/03/02 00:26:14;;;;;;;34.92;22.17;;;5.60;99.90;;;;;;5117154;28;20032;-64
2022/03/02 00:28:40;;;;;;;34.92;21.90;;;5.70;99.90;;;;;;5115774;28;20050;-63
2022/03/02 00:31:06;;;;;;;42.70;22.83;;;5.90;99.90;;;;;;5116216;28;20044;-63
2022/03/02 00:33:32;;;;;;;40.10;25.17;;;5.60;99.90;;;;;;5115747;28;20119;-63
2022/03/02 00:35:57;;;;;;;36.08;23.13;;;5.70;99.90;;;;;;5116160;28;20043;-64
2022/03/02 00:38:23;;;;;;;34.70;21.00;;;5.60;99.90;;;;;;5115897;28;20044;-63
2022/03/02 00:40:49;;;;;;;37.58;23.10;;;;;;;;;;5114910;28;20044;-63
2022/03/02 00:43:16;;;;;;;38.63;22.95;;;5.60;99.90;;;;;;5099089;28;20489;-64
2022/03/02 00:45:41;;;;;;;35.30;22.52;;;5.60;99.90;;;;;;5097782;28;20048;-63
2022/03/02 00:48:09;;;;;;;35.75;23.63;;;5.70;99.90;;;;;;5115267;28;20050;-64
2022/03/02 00:50:35;;;;;;;35.47;21.90;;;5.40;99.90;;;;;;5115908;28;20477;-63
2022/03/02 00:53:02;;;;;;;38.75;24.42;;;5.60;99.90;;;;;;5116625;28;20072;-64
2022/03/02 00:55:28;;;;;;;33.85;22.02;;;5.40;99.90;;;;;;5114839;28;20122;-64
2022/03/02 00:57:54;;;;;;;35.47;21.27;;;;;;;;;;5114741;28;20607;-62
2022/03/02 01:00:20;;;;;;;40.10;22.92;;;5.40;99.90;;;;;;5114839;28;20092;-63
2022/03/02 01:02:46;;;;;;;33.90;21.73;;;;;;;;;;5115061;28;20489;-64
2022/03/02 01:05:12;;;;;;;33.20;21.23;;;5.30;99.90;;;;;;5116018;28;20043;-64
2022/03/02 01:07:38;;;;;;;31.63;19.90;;;5.30;99.90;;;;;;5114820;28;20058;-64
2022/03/02 01:10:05;;;;;;;35.80;22.75;;;5.40;99.90;;;;;;5115782;28;20040;-63
2022/03/02 01:12:31;;;;;;;34.90;22.00;;;5.40;99.90;;;;;;5098369;28;20377;-63
2022/03/02 01:14:57;;;;;;;33.10;21.92;;;5.40;99.90;;;;;;5114733;28;20077;-63
2022/03/02 01:17:23;;;;;;;37.92;23.08;;;;;;;;;;5116164;28;20032;-63
2022/03/02 01:19:49;;;;;;;34.10;21.10;;;5.40;99.90;;;;;;5114797;28;20048;-63
2022/03/02 01:22:15;;;;;;;36.33;21.75;;;5.40;99.90;;;;;;5115872;27;20108;-63
2022/03/02 01:24:41;;;;;;;37.28;24.33;;;5.30;99.90;;;;;;5115011;28;20065;-64
2022/03/02 01:27:07;;;;;;;40.33;23.83;;;;;;;;;;5114265;28;20043;-63
2022/03/02 01:29:36;;;;;;;34.15;21.92;;;5.40;99.90;;;;;;5114453;28;20058;-63
2022/03/02 01:32:07;;;;;;;34.40;22.77;;;5.40;99.90;;;;;;5114726;28;20042;-63
2022/03/02 01:34:33;;;;;;;36.30;21.48;;;;;;;;;;5115601;28;20043;-63
2022/03/02 01:36:59;;;;;;;35.85;21.77;;;5.40;99.90;;;;;;5115043;28;20046;-64
2022/03/02 01:39:25;;;;;;;37.65;22.85;;;;;;;;;;5096883;28;20039;-63
2022/03/02 01:41:51;;;;;;;36.25;22.50;;;5.40;99.90;;;;;;5114547;28;20031;-63
2022/03/02 01:44:16;;;;;;;38.10;24.08;;;5.40;99.90;;;;;;5114240;28;20046;-63
2022/03/02 01:46:42;;;;;;;37.67;23.08;;;5.30;99.90;;;;;;5114206;28;20039;-63
2022/03/02 01:49:08;;;;;;;37.65;22.23;;;;;;;;;;5115481;28;20036;-63
2022/03/02 01:51:34;;;;;;;39.03;22.80;;;5.40;99.90;;;;;;5114849;28;20457;-63
2022/03/02 01:54:00;;;;;;;38.05;23.48;;;5.50;99.90;;;;;;5113475;28;20130;-64
2022/03/02 01:56:26;;;;;;;35.85;23.23;;;5.40;99.90;;;;;;5115814;28;20092;-63
2022/03/02 01:58:52;;;;;;;34.00;22.75;;;;;;;;;;5115607;28;20087;-63
2022/03/02 02:01:19;;;;;;;36.72;22.98;;;5.60;99.90;;;;;;5114774;28;20035;-63
2022/03/02 02:03:45;;;;;;;40.95;22.65;;;5.40;99.90;;;;;;5113289;28;20087;-64
2022/03/02 02:06:13;;;;;;;35.92;21.98;;;5.30;99.90;;;;;;5114897;28;20036;-63
2022/03/02 02:08:39;;;;;;;37.35;23.58;;;5.60;99.90;;;;;;5095746;28;20035;-63
2022/03/02 02:11:04;;;;;;;38.05;22.63;;;5.20;99.90;;;;;;5115401;28;20036;-64
2022/03/02 02:13:32;;;;;;;38.15;22.88;;;5.40;99.90;;;;;;5113840;28;20043;-63
2022/03/02 02:15:57;;;;;;;38.30;23.45;;;5.30;99.90;;;;;;5114582;28;20036;-64
2022/03/02 02:18:23;;;;;;;41.38;24.27;;;5.30;99.90;;;;;;5115091;28;20405;-63
2022/03/02 02:20:49;;;;;;;40.90;24.10;;;5.30;99.90;;;;;;5097129;28;20052;-63
2022/03/02 02:23:15;;;;;;;37.10;22.33;;;5.40;99.90;;;;;;5114048;28;20450;-64
2022/03/02 02:25:41;;;;;;;40.35;24.00;;;5.30;99.90;;;;;;5113116;28;20042;-64
2022/03/02 02:28:12;;;;;;;41.55;24.30;;;5.40;99.90;;;;;;5113488;28;20040;-64
2022/03/02 02:30:38;;;;;;;38.08;24.00;;;;;;;;;;5096879;28;20050;-64
2022/03/02 02:33:04;;;;;;;39.13;24.02;;;;;;;;;;5114006;28;20046;-63
2022/03/02 02:35:30;;;;;;;40.53;21.77;;;5.20;99.90;;;;;;5096836;28;20044;-65
2022/03/02 02:37:58;;;;;;;39.10;23.05;;;5.20;99.90;;;;;;5113790;28;20058;-63
2022/03/02 02:40:24;;;;;;;39.40;23.80;;;;;;;;;;5113663;28;20035;-63
2022/03/02 02:42:50;;;;;;;42.53;24.42;;;5.20;99.90;;;;;;5113701;28;20051;-63
2022/03/02 02:45:20;;;;;;;39.83;22.85;;;5.10;99.90;;;;;;5115353;28;20036;-63
2022/03/02 02:47:49;;;;;;;39.25;25.67;;;5.20;99.90;;;;;;5113369;28;20032;-63
2022/03/02 02:50:23;;;;;;;42.90;23.77;;;5.40;99.90;;;;;;5113890;28;20118;-63
2022/03/02 02:52:50;;;;;;;40.53;24.20;;;5.10;99.90;;;;;;5114621;28;20501;-63
2022/03/02 02:55:16;;;;;;;38.17;22.90;;;;;;;;;;5113387;28;20368;-64
2022/03/02 02:57:43;;;;;;;39.80;23.17;;;5.20;99.90;;;;;;5113898;28;20105;-64
2022/03/02 03:00:12;;;;;;;35.13;22.17;;;5.30;99.90;;;;;;5112901;28;20124;-63
2022/03/02 03:02:38;;;;;;;39.58;23.05;;;5.00;99.90;;;;;;5113273;28;20057;-63
2022/03/02 03:05:04;;;;;;;39.72;23.67;;;5.20;99.90;;;;;;5096249;28;20047;-64
2022/03/02 03:07:30;;;;;;;42.83;24.65;;;;;;;;;;5114039;28;20108;-63
2022/03/02 03:09:56;;;;;;;41.20;24.10;;;5.20;99.90;;;;;;5113256;28;20110;-64
2022/03/02 03:12:21;;;;;;;43.63;24.05;;;5.20;99.90;;;;;;5096581;28;20396;-63
2022/03/02 03:14:47;;;;;;;43.05;23.48;;;5.20;99.90;;;;;;5113274;28;20452;-63
2022/03/02 03:17:13;;;;;;;42.97;25.80;;;5.20;99.90;;;;;;5112719;28;20114;-63
2022/03/02 03:19:38;;;;;;;42.17;25.48;;;5.20;99.90;;;;;;5114135;28;20052;-63
2022/03/02 03:22:08;;;;;;;44.15;25.73;;;5.10;99.90;;;;;;5117034;28;20049;-64
2022/03/02 03:24:34;;;;;;;40.95;24.42;;;5.30;99.90;;;;;;5038501;28;20571;-64
2022/03/02 03:27:00;;;;;;;43.20;25.58;;;;;;;;;;4993879;28;20046;-64
2022/03/02 03:29:26;;;;;;;42.08;24.13;;;5.30;99.90;;;;;;4994569;28;20047;-64
2022/03/02 03:31:52;;;;;;;43.42;25.00;;;;;;;;;;5010490;28;20560;-64
2022/03/02 03:34:18;;;;;;;45.10;25.83;;;5.20;99.90;;;;;;4994339;28;20125;-63
2022/03/02 03:36:43;;;;;;;44.28;25.88;;;5.30;99.90;;;;;;4995764;28;20069;-64
2022/03/02 03:39:09;;;;;;;49.20;26.83;;;5.20;99.90;;;;;;4994071;28;20490;-64
2022/03/02 03:41:35;;;;;;;45.08;26.60;;;;;;;;;;4996300;28;20042;-63
2022/03/02 03:44:01;;;;;;;41.83;25.02;;;5.30;99.90;;;;;;5010108;28;20046;-64
2022/03/02 03:46:27;;;;;;;42.28;24.40;;;5.00;99.90;;;;;;5118486;28;20035;-64
2022/03/02 03:48:53;;;;;;;42.13;25.00;;;;;;;;;;5116493;28;20603;-64
2022/03/02 03:51:19;;;;;;;44.33;26.20;;;4.90;99.90;;;;;;5116083;28;20520;-64
2022/03/02 03:53:45;;;;;;;42.47;25.95;;;4.80;99.90;;;;;;5116666;28;20047;-64
2022/03/02 03:56:11;;;;;;;48.28;26.73;;;;;;;;;;5117067;28;20036;-63
2022/03/02 03:58:37;;;;;;;47.70;26.50;;;4.90;99.90;;;;;;5116468;28;20051;-64
2022/03/02 04:01:02;;;;;;;46.70;27.15;;;4.70;99.90;;;;;;5116683;28;20428;-64
2022/03/02 04:03:28;;;;;;;44.83;26.20;;;;;;;;;;5099573;28;20032;-64
2022/03/02 04:05:54;;;;;;;45.25;25.92;;;4.80;99.90;;;;;;5117784;28;20446;-64
2022/03/02 04:08:22;;;;;;;45.40;27.88;;;;;;;;;;5116186;28;20085;-64
2022/03/02 04:10:49;;;;;;;47.67;27.67;;;4.90;99.90;;;;;;5117832;28;20040;-64
2022/03/02 04:13:15;;;;;;;53.05;27.58;;;4.70;99.90;;;;;;5116323;28;20500;-64
2022/03/02 04:15:41;;;;;;;48.67;28.90;;;4.70;99.90;;;;;;5099990;28;20043;-64
2022/03/02 04:18:07;;;;;;;48.17;27.20;;;4.70;99.90;;;;;;5116699;28;20042;-64
2022/03/02 04:20:36;;;;;;;49.00;28.02;;;4.50;99.90;;;;;;5099332;28;20032;-64
2022/03/02 04:23:02;;;;;;;49.38;29.15;;;4.50;99.90;;;;;;5117414;28;20047;-64
2022/03/02 04:25:28;;;;;;;49.65;28.10;;;;;;;;;;5117526;28;20043;-64
2022/03/02 04:27:54;;;;;;;46.28;27.00;;;;;;;;;;5098708;28;20550;-63
2022/03/02 04:30:20;;;;;;;47.03;27.83;;;4.20;99.90;;;;;;5115946;28;20035;-64
2022/03/02 04:32:46;;;;;;;44.50;26.13;;;;;;;;;;5117000;28;20035;-64
2022/03/02 04:35:13;;;;;;;45.40;26.08;;;3.90;99.90;;;;;;5116333;28;20503;-64
2022/03/02 04:37:40;;;;;;;46.20;27.63;;;3.80;99.90;;;;;;5117019;27;20432;-64
2022/03/02 04:40:10;;;;;;;41.45;25.17;;;;;;;;;;5099803;28;20122;-64
2022/03/02 04:42:36;;;;;;;41.97;25.63;;;3.70;99.90;;;;;;5116784;28;20489;-63
2022/03/02 04:45:03;;;;;;;46.85;27.17;;;3.60;99.90;;;;;;5114829;28;20036;-64
2022/03/02 04:47:29;;;;;;;47.30;26.85;;;;;;;;;;5116530;28;20047;-64
2022/03/02 04:49:55;;;;;;;47.88;27.15;;;;;;;;;;5116241;28;20035;-64
2022/03/02 04:52:21;;;;;;;44.78;26.55;;;;;;;;;;5114943;28;20046;-64
2022/03/02 04:55:05;;;;;;;45.35;27.73;;;3.40;99.90;;;;;;5115302;28;20493;-63
2022/03/02 04:57:35;;;;;;;47.10;27.52;;;3.40;99.90;;;;;;5097754;28;20044;-63
2022/03/02 05:00:01;;;;;;;47.83;27.77;;;;;;;;;;5059198;28;20042;-64
2022/03/02 05:02:27;;;;;;;47.67;28.13;;;3.40;99.90;;;;;;4992565;28;20046;-64
2022/03/02 05:04:53;;;;;;;45.30;27.73;;;;;;;;;;4999048;28;20537;-63
2022/03/02 05:07:18;;;;;;;47.42;27.95;;;3.40;99.90;;;;;;5010502;28;20079;-63
2022/03/02 05:09:44;;;;;;;51.90;29.33;;;;;;;;;;5011157;28;20381;-66
2022/03/02 05:12:10;;;;;;;43.80;27.08;;;;;;;;;;5010976;28;20040;-66
2022/03/02 05:14:36;;;;;;;47.20;27.17;;;;;;;;;;5006524;28;20061;-65
2022/03/02 05:17:03;;;;;;;45.05;26.60;;;;;;;;;;4996195;28;20054;-66
2022/03/02 05:19:29;;;;;;;46.95;27.42;;;;;;;;;;4992242;28;20106;-64
2022/03/02 05:21:55;;;;;;;49.08;29.13;;;;;;;;;;4972497;28;20089;-64
2022/03/02 05:24:21;;;;;;;51.17;28.10;;;;;;;;;;4987586;28;20050;-64
2022/03/02 05:26:47;;;;;;;47.65;27.92;;;;;;;;;;4987764;28;20098;-64
2022/03/02 05:29:14;;;;;;;48.47;28.05;;;;;;;;;;4988257;28;20121;-64
2022/03/02 05:31:40;;;;;;;48.67;27.92;;;;;;;;;;4995926;28;20082;-63
2022/03/02 05:34:06;;;;;;;47.33;27.05;;;;;;;;;;5005687;28;20525;-63
2022/03/02 05:36:32;;;;;;;52.08;28.13;;;;;;;;;;5007049;28;20056;-64
2022/03/02 05:38:58;;;;;;;48.03;28.35;;;;;;;;;;5005999;28;20057;-62
2022/03/02 05:41:24;;;;;;;50.00;28.67;;;;;;;;;;5005513;28;20090;-63
2022/03/02 05:43:53;;;;;;;50.13;27.88;;;;;;;;;;5008922;28;20099;-61
2022/03/02 05:46:19;;;;;;;53.25;27.95;;;;;;;;;;5005521;28;20053;-61
2022/03/02 05:48:45;;;;;;;51.17;28.25;;;2.80;99.90;;;;;;5005408;28;20049;-62
2022/03/02 05:51:11;;;;;;;51.90;28.50;;;;;;;;;;5006863;28;20034;-61
2022/03/02 05:53:37;;;;;;;47.05;26.23;;;;;;;;;;5006470;28;20059;-61
2022/03/02 05:56:03;;;;;;;54.45;29.60;;;;;;;;;;5000090;28;20053;-62
2022/03/02 05:58:29;;;;;;;49.30;27.75;;;;;;;;;;4988838;28;20081;-62
2022/03/02 06:00:57;;;;;;;55.90;29.98;;;;;;;;;;4992332;28;20484;-62
2022/03/02 06:03:23;;;;;;;53.00;29.00;;;;;;;;;;4995198;28;20114;-63
2022/03/02 06:05:49;;;;;;;50.28;26.75;;;;;;;;;;5003150;28;20049;-62
2022/03/02 06:08:15;;;;;;;50.97;28.95;;;;;;;;;;5004236;28;20050;-62
2022/03/02 06:10:41;;;;;;;50.15;28.75;;;;;;;;;;5000450;28;20484;-63
2022/03/02 06:13:07;;;;;;;50.80;28.27;;;2.70;99.90;;;;;;5000866;28;20069;-61
2022/03/02 06:15:33;;;;;;;50.20;27.25;;;2.80;99.90;;;;;;5009279;28;20165;-61
2022/03/02 06:18:01;;;;;;;47.63;27.30;;;2.50;99.90;;;;;;5009671;28;20491;-62
2022/03/02 06:20:27;;;;;;;47.85;27.45;;;2.60;99.90;;;;;;4999619;28;20112;-62
2022/03/02 06:22:53;;;;;;;55.42;29.73;;;;;;;;;;5008882;28;20117;-62
2022/03/02 06:25:19;;;;;;;46.25;26.55;;;2.40;99.90;;;;;;5002350;28;20058;-63
2022/03/02 06:27:45;;;;;;;47.95;27.45;;;2.40;99.90;;;;;;4990949;28;20039;-62
2022/03/02 06:30:12;;;;;;;48.25;28.30;;;2.30;99.90;;;;;;4991187;28;20112;-65
2022/03/02 06:32:38;;;;;;;46.63;27.33;;;2.30;99.90;;;;;;4990808;28;20070;-65
2022/03/02 06:35:04;;;;;;;45.33;25.75;;;2.20;99.90;;;;;;4990823;28;20096;-65
2022/03/02 06:37:33;;;;;;;50.20;27.95;;;;;;;;;;4990925;28;20042;-64
2022/03/02 06:39:59;;;;;;;48.97;27.98;;;2.30;99.90;;;;;;4991220;28;20121;-66
2022/03/02 06:42:32;;;;;;;55.40;28.10;;;;;;;;;;4990965;28;20127;-64
2022/03/02 06:45:04;;;;;;;46.35;26.35;;;2.30;99.90;;;;;;5044495;28;20504;-65
2022/03/02 06:47:36;;;;;;;50.00;28.40;;;2.20;99.90;;;;;;5078101;28;20042;-64
2022/03/02 06:50:10;;;;;;;46.15;26.33;;;2.20;99.90;;;;;;5009956;28;20041;-66
2022/03/02 06:52:37;;;;;;;51.33;28.00;;;;;;;;;;5004431;28;20054;-65
2022/03/02 06:55:08;;;;;;;49.00;28.48;;;;;;;;;;5013876;28;20084;-64
2022/03/02 06:57:34;;;;;;;50.88;29.17;;;2.40;99.90;;;;;;4996808;28;20467;-63
2022/03/02 07:00:07;;;;;;;45.33;26.38;;;2.50;99.90;;;;;;5103636;28;20051;-64
2022/03/02 07:02:45;;;;;;;52.28;27.02;;;2.40;99.90;;;;;;5116160;28;20040;-64
2022/03/02 07:05:11;;;;;;;48.63;27.10;;;2.40;99.90;;;;;;5016894;28;20050;-68
2022/03/02 07:07:37;;;;;;;47.47;26.85;;;2.50;99.90;;;;;;4996188;28;20430;-64
2022/03/02 07:10:08;;;;;;;50.15;27.23;;;2.60;99.90;;;;;;5013882;28;20038;-64
2022/03/02 07:12:35;;;;;;;49.20;27.60;;;2.60;99.90;;;;;;4992680;28;20042;-64
2022/03/02 07:15:01;;;;;;;52.42;27.35;;;2.70;99.90;;;;;;4993942;28;20038;-66
2022/03/02 07:17:27;;;;;;;46.00;26.60;;;2.90;99.90;;;;;;4992661;28;20096;-66
2022/03/02 07:19:53;;;;;;;47.45;25.95;;;3.10;99.90;;;;;;4993833;28;20043;-64
2022/03/02 07:22:22;;;;;;;42.95;26.17;;;2.90;99.90;;;;;;4992978;28;20129;-64
2022/03/02 07:24:53;;;;;;;47.25;27.25;;;3.10;99.90;;;;;;4993638;28;20118;-65
2022/03/02 07:27:20;;;;;;;48.78;28.38;;;;;;;;;;5010233;28;20042;-65
2022/03/02 07:29:49;;;;;;;51.83;27.70;;;;;;;;;;4997214;28;20124;-65
2022/03/02 07:32:23;;;;;;;45.90;27.90;;;3.60;99.90;;;;;;5009085;28;20042;-65
2022/03/02 07:34:58;;;;;;;52.23;29.07;;;3.60;99.90;;;;;;5013647;28;20041;-65
2022/03/02 07:37:25;;;;;;;55.85;28.42;;;3.80;99.90;;;;;;5010565;28;20908;-65
2022/03/02 07:39:51;;;;;;;52.47;29.52;;;4.10;99.90;;;;;;5052894;28;20413;-65
2022/03/02 07:42:19;;;;;;;46.33;27.60;;;4.10;99.90;;;;;;5010707;28;20086;-66
2022/03/02 07:44:47;;;;;;;52.75;28.73;;;4.30;99.90;;;;;;5019094;28;20077;-65
2022/03/02 07:47:13;;;;;;;44.83;26.65;;;4.20;99.90;;;;;;5010648;28;20120;-65
2022/03/02 07:49:38;;;;;;;50.08;29.60;;;4.40;99.90;;;;;;5021147;28;20120;-63
2022/03/02 07:52:07;;;;;;;49.42;28.27;;;;;;;;;;5013487;28;20479;-66
2022/03/02 07:54:41;;;;;;;47.55;26.60;;;4.80;99.90;;;;;;5062547;28;20164;-63
2022/03/02 07:57:08;;;;;;;47.63;26.02;;;4.80;99.90;;;;;;5025460;28;20054;-65
2022/03/02 07:59:39;;;;;;;41.90;25.23;;;5.10;99.90;;;;;;5012583;28;20084;-63
2022/03/02 08:02:08;;;;;;;45.28;24.95;;;6.30;99.90;;;;;;5022115;28;20045;-64
2022/03/02 08:04:35;;;;;;;45.72;25.70;;;6.80;99.90;;;;;;5004344;28;20499;-63
2022/03/02 08:07:01;;;;;;;39.58;24.52;;;7.30;99.90;;;;;;5010319;28;20113;-64
2022/03/02 08:09:27;;;;;;;41.97;24.15;;;;;;;;;;5011005;28;20125;-65
2022/03/02 08:11:53;;;;;;;42.17;25.17;;;8.60;99.90;;;;;;5012689;28;20500;-63
2022/03/02 08:14:18;;;;;;;35.85;22.90;;;9.20;99.90;;;;;;5003782;28;20509;-62
2022/03/02 08:16:48;;;;;;;39.05;23.15;;;9.30;99.90;;;;;;5005522;28;20041;-66
2022/03/02 08:19:13;;;;;;;38.40;23.48;;;9.70;99.90;;;;;;5007351;28;20096;-66
2022/03/02 08:21:43;;;;;;;38.63;23.42;;;10.00;99.90;;;;;;5027008;28;20063;-65
2022/03/02 08:24:11;;;;;;;36.88;23.38;;;10.10;99.90;;;;;;5007964;28;20102;-63
2022/03/02 08:26:39;;;;;;;35.00;23.75;;;9.50;99.90;;;;;;5020705;28;20491;-63
2022/03/02 08:29:08;;;;;;;36.40;24.17;;;9.20;99.90;;;;;;5008671;28;20509;-64
2022/03/02 08:31:40;;;;;;;34.50;22.63;;;9.00;99.90;;;;;;5001966;28;20041;-63
2022/03/02 08:34:07;;;;;;;39.25;24.00;;;;;;;;;;5023483;28;20337;-64
2022/03/02 08:36:34;;;;;;;36.08;21.02;;;;;;;;;;5018232;28;20510;-65
2022/03/02 08:39:10;;;;;;;35.80;23.23;;;10.30;99.90;;;;;;5023564;28;20396;-64
2022/03/02 08:41:37;;;;;;;38.38;22.90;;;11.40;99.90;;;;;;5004409;28;20046;-64
2022/03/02 08:44:03;;;;;;;34.03;21.88;;;11.30;99.90;;;;;;5026050;28;20117;-65
2022/03/02 08:46:29;;;;;;;31.90;21.83;;;12.60;99.90;;;;;;5005053;28;20049;-65
2022/03/02 08:48:55;;;;;;;30.20;21.52;;;12.80;99.90;;;;;;5008233;28;20041;-66
2022/03/02 08:51:23;;;;;;;32.17;20.35;;;13.20;99.90;;;;;;5005353;28;20044;-67
2022/03/02 08:53:50;;;;;;;30.90;20.83;;;13.30;99.90;;;;;;5004347;28;20053;-65
2022/03/02 08:56:17;;;;;;;31.15;19.77;;;14.70;99.90;;;;;;5000968;28;20038;-65
2022/03/02 08:58:43;;;;;;;31.77;20.27;;;15.40;99.90;;;;;;5034763;28;20079;-65
2022/03/02 09:01:11;;;;;;;28.98;20.48;;;15.20;99.90;;;;;;5008953;28;20042;-65
2022/03/02 09:03:42;;;;;;;32.78;20.25;;;16.30;99.90;;;;;;5000833;28;20061;-65
2022/03/02 09:06:10;;;;;;;28.15;19.05;;;16.90;99.00;;;;;;5031845;28;20045;-65
2022/03/02 09:08:37;;;;;;;30.02;19.67;;;16.50;95.40;;;;;;5010716;28;20042;-66
2022/03/02 09:11:02;;;;;;;27.95;19.50;;;16.70;96.30;;;;;;5012029;28;20548;-65
2022/03/02 09:13:28;;;;;;;28.30;19.88;;;16.30;96.20;;;;;;5018239;28;20053;-64
2022/03/02 09:15:54;;;;;;;29.05;19.98;;;16.70;96.10;;;;;;5031837;28;20035;-65
2022/03/02 09:18:20;;;;;;;25.83;17.52;;;17.20;94.80;;;;;;5013515;28;20046;-64
2022/03/02 09:20:53;;;;;;;26.70;18.73;;;17.10;93.40;;;;;;5008532;28;20081;-65
2022/03/02 09:23:19;;;;;;;24.55;18.23;;;17.80;90.80;;;;;;5007439;28;20073;-64
2022/03/02 09:25:46;;;;;;;27.25;19.55;;;17.60;91.00;;;;;;5003356;28;20045;-66
2022/03/02 09:28:12;;;;;;;25.45;17.95;;;17.10;90.90;;;;;;5019339;28;20042;-63
2022/03/02 09:30:38;;;;;;;26.42;17.98;;;16.90;91.40;;;;;;5008705;28;20050;-64
2022/03/02 09:33:07;;;;;;;27.27;17.33;;;17.20;91.30;;;;;;5007891;28;20033;-65
2022/03/02 09:35:33;;;;;;;22.42;16.48;;;17.70;90.00;;;;;;5007994;28;20050;-65
2022/03/02 09:37:59;;;;;;;25.95;18.02;;;17.80;89.20;;;;;;5020804;28;20120;-65
2022/03/02 09:40:30;;;;;;;25.10;16.90;;;18.50;87.20;;;;;;5008808;28;20046;-64
2022/03/02 09:42:59;;;;;;;23.67;17.25;;;18.70;87.20;;;;;;4994201;28;20056;-65
2022/03/02 09:45:26;;;;;;;24.20;17.58;;;19.00;84.30;;;;;;5012436;28;20519;-65
2022/03/02 09:47:56;;;;;;;27.17;17.83;;;19.10;85.00;;;;;;5010259;28;20372;-66
2022/03/02 09:50:23;;;;;;;23.55;16.75;;;19.70;84.10;;;;;;5076724;28;20043;-66
2022/03/02 09:52:51;;;;;;;20.63;16.60;;;20.50;83.00;;;;;;4999471;28;20062;-66
2022/03/02 09:55:21;;;;;;;23.42;16.23;;;20.70;80.90;;;;;;5006415;28;20046;-66
2022/03/02 09:57:52;;;;;;;24.80;17.55;;;21.40;79.80;;;;;;5005068;28;20057;-66
2022/03/02 10:00:19;;;;;;;26.05;17.88;;;21.10;79.40;;;;;;4999945;28;20050;-67
2022/03/02 10:02:49;;;;;;;24.23;17.75;;;21.70;77.90;;;;;;5016698;28;20103;-67
2022/03/02 10:05:23;;;;;;;22.63;17.15;;;22.30;76.90;;;;;;5008662;28;20046;-68
2022/03/02 10:07:54;;;;;;;24.80;16.55;;;22.40;75.00;;;;;;5005258;28;20527;-67
2022/03/02 10:10:23;;;;;;;24.40;16.88;;;21.60;73.80;;;;;;5014043;28;20805;-66
2022/03/02 10:12:55;;;;;;;23.85;16.77;;;23.80;69.80;;;;;;5009786;28;20184;-66
2022/03/02 10:15:20;;;;;;;22.00;16.00;;;23.20;72.00;;;;;;5030830;28;20041;-66
2022/03/02 10:17:51;;;;;;;22.25;16.48;;;23.10;72.70;;;;;;5006078;28;20045;-66
2022/03/02 10:20:23;;;;;;;22.25;15.00;;;23.10;71.50;;;;;;5008410;28;20041;-65
2022/03/02 10:23:26;;;;;;;21.75;16.05;;;22.80;72.30;;;;;;5023299;28;20091;-65
2022/03/02 10:26:29;;;;;;;21.02;15.90;;;22.20;71.40;;;;;;5007057;28;20464;-65
2022/03/02 10:29:10;;;;;;;22.00;15.65;;;22.70;71.30;;;;;;5004008;28;20065;-66
2022/03/02 10:32:05;;;;;;;23.45;16.50;;;23.50;69.40;;;;;;5005103;28;20038;-67
2022/03/02 10:34:36;;;;;;;19.00;15.07;;;22.40;70.10;;;;;;5004316;28;20091;-65
2022/03/02 10:37:04;;;;;;;20.40;15.52;;;22.20;70.80;;;;;;5006455;28;20077;-64
2022/03/02 10:39:58;;;;;;;20.25;15.13;;;22.20;71.10;;;;;;5007743;28;20102;-64
2022/03/02 10:42:33;;;;;;;22.45;17.13;;;21.20;70.10;;;;;;5006777;28;20075;-64
2022/03/02 10:45:14;;;;;;;21.77;15.13;;;21.00;73.80;;;;;;5009665;28;20038;-65
2022/03/02 10:47:47;;;;;;;22.35;15.73;;;20.40;72.50;;;;;;5002514;28;20120;-63
2022/03/02 10:50:14;;;;;;;20.88;15.90;;;20.40;71.60;;;;;;5005213;28;20062;-64
2022/03/02 10:52:41;;;;;;;20.25;15.18;;;20.40;73.40;;;;;;5005787;28;20095;-64
2022/03/02 10:55:10;;;;;;;25.92;16.75;;;20.50;72.10;;;;;;5007628;28;20085;-64
2022/03/02 10:57:36;;;;;;;21.52;15.57;;;19.50;74.30;;;;;;5007465;28;20030;-66
2022/03/02 11:00:11;;;;;;;21.42;15.23;;;19.30;76.30;;;;;;5007572;28;20053;-64
2022/03/02 11:02:45;;;;;;;21.45;15.15;;;17.80;78.30;;;;;;5006047;28;20050;-66
2022/03/02 11:05:14;;;;;;;23.50;15.43;;;18.40;77.80;;;;;;5014287;28;20050;-63
2022/03/02 11:07:41;;;;;;;20.67;14.63;;;17.10;78.70;;;;;;5005698;28;20554;-63
2022/03/02 11:10:10;;;;;;;24.50;15.45;;;17.10;77.20;;;;;;5013844;28;20042;-63
2022/03/02 11:12:41;;;;;;;20.55;14.98;;;17.20;78.20;;;;;;5019280;28;20052;-63
2022/03/02 11:15:07;;;;;;;22.88;16.05;;;16.00;79.40;;;;;;5009265;28;20038;-63
2022/03/02 11:17:34;;;;;;;23.05;16.00;;;16.00;79.10;;;;;;5009240;28;20053;-63
2022/03/02 11:20:07;;;;;;;21.60;14.98;;;15.80;80.00;;;;;;5006864;28;20080;-62
2022/03/02 11:22:33;;;;;;;25.88;15.52;;;15.70;81.10;;;;;;5007130;28;20073;-62
2022/03/02 11:25:03;;;;;;;28.35;16.85;;;15.50;83.10;;;;;;5021718;28;20079;-62
2022/03/02 11:27:39;;;;;;;20.88;13.70;;;14.90;85.10;;;;;;5036990;28;20052;-63
2022/03/02 11:30:11;;;;;;;20.45;13.00;;;14.80;84.40;;;;;;4997492;28;20038;-65
2022/03/02 11:32:40;;;;;;;19.40;12.73;;;14.60;79.80;;;;;;5006523;28;20125;-66
2022/03/02 11:35:10;;;;;;;20.67;13.30;;;14.80;82.30;;;;;;5007352;28;20049;-63
2022/03/02 11:37:36;;;;;;;18.83;13.48;;;14.00;83.40;;;;;;5009901;28;20053;-65
2022/03/02 11:40:06;;;;;;;20.05;13.60;;;13.50;85.40;;;;;;5004648;28;20034;-63
2022/03/02 11:42:34;;;;;;;21.15;13.07;;;13.20;86.50;;;;;;5008892;28;20076;-64
2022/03/02 11:45:01;;;;;;;19.73;13.48;;;12.70;87.90;;;;;;5008756;28;20437;-64
2022/03/02 11:47:38;;;;;;;20.88;13.98;;;12.90;88.00;;;;;;5052312;28;20037;-65
2022/03/02 11:50:07;;;;;;;21.25;12.80;;;12.50;89.10;;;;;;5040215;28;20030;-64
2022/03/02 11:52:35;;;;;;;20.52;12.65;;;12.50;89.90;;;;;;5006130;28;20058;-64
2022/03/02 11:55:06;;;;;;;20.67;12.98;;;13.90;88.40;;;;;;4998548;28;20046;-65
2022/03/02 11:57:39;;;;;;;23.70;15.65;;;14.00;87.20;;;;;;5000862;28;20103;-63
2022/03/02 12:00:09;;;;;;;22.83;14.93;;;13.80;90.40;;;;;;5002588;28;20046;-65
2022/03/02 12:02:46;;;;;;;24.55;16.88;;;14.40;90.50;;;;;;5008277;28;20517;-64
2022/03/02 12:05:12;;;;;;;21.73;15.35;;;14.50;89.40;;;;;;5003049;28;20070;-65
2022/03/02 12:07:47;;;;;;;22.00;14.52;;;16.30;86.30;;;;;;5007689;28;20038;-63
2022/03/02 12:10:25;;;;;;;21.58;14.15;;;17.00;84.60;;;;;;5013180;28;20539;-65
2022/03/02 12:12:53;;;;;;;21.58;14.73;;;15.30;87.50;;;;;;5009203;28;20042;-65
2022/03/02 12:15:19;;;;;;;24.55;15.75;;;14.70;89.10;;;;;;5009991;28;20050;-64
2022/03/02 12:17:46;;;;;;;24.77;15.63;;;14.40;90.00;;;;;;5009415;28;20605;-65
2022/03/02 12:20:19;;;;;;;24.25;16.15;;;13.50;91.00;;;;;;5023560;28;20111;-63
2022/03/02 12:22:48;;;;;;;23.45;14.93;;;13.10;91.20;;;;;;5017656;28;20506;-64
2022/03/02 12:25:17;;;;;;;23.70;15.90;;;12.70;92.50;;;;;;5001272;28;20050;-65
2022/03/02 12:27:56;;;;;;;29.85;18.15;;;12.40;93.10;;;;;;4997035;28;20054;-65
2022/03/02 12:30:22;;;;;;;25.85;16.17;;;12.10;93.40;;;;;;5004510;28;20076;-64
2022/03/02 12:32:48;;;;;;;24.63;15.73;;;12.20;95.60;;;;;;5018251;28;20057;-65
2022/03/02 12:35:13;;;;;;;24.67;16.17;;;12.00;96.70;;;;;;5004731;28;20150;-65
2022/03/02 12:37:40;;;;;;;27.45;17.23;;;12.20;97.30;;;;;;5005814;28;20079;-64
2022/03/02 12:40:11;;;;;;;24.13;16.80;;;12.00;98.20;;;;;;5006089;28;20498;-65
2022/03/02 12:42:43;;;;;;;26.80;18.05;;;12.20;97.40;;;;;;5013015;28;20034;-63
2022/03/02 12:45:10;;;;;;;31.80;18.45;;;12.30;99.30;;;;;;5016206;28;20072;-65
2022/03/02 12:47:37;;;;;;;27.90;17.20;;;12.20;99.40;;;;;;5010675;28;20056;-62
2022/03/02 12:50:05;;;;;;;22.05;16.20;;;12.00;99.90;;;;;;5009127;28;20045;-65
2022/03/02 12:52:31;;;;;;;25.75;15.85;;;;;;;;;;5007754;28;20054;-65
2022/03/02 12:55:00;;;;;;;25.40;16.33;;;12.10;96.10;;;;;;5015191;28;20068;-65
2022/03/02 12:57:28;;;;;;;23.52;17.17;;;11.80;99.50;;;;;;5007798;28;20453;-65